sensor_id;sensor_type;location;lat;lon;timestamp;pressure;altitude;pressure_sealevel;temperature;humidity
59971;BME280;45825;45.434;9.116;2024-01-27T00:01:20;101307.00;;;4.44;100.00
59971;BME280;45825;45.434;9.116;2024-01-27T00:03:46;101307.00;;;4.47;100.00
59971;BME280;45825;45.434;9.116;2024-01-27T00:06:11;101313.13;;;4.43;100.00
59971;BME280;45825;45.434;9.116;2024-01-27T00:08:36;101310.50;;;4.43;100.00
59971;BME280;45825;45.434;9.116;2024-01-27T00:11:01;101305.44;;;4.32;100.00
59971;BME280;45825;45.434;9.116;2024-01-27T00:13:27;101312.38;;;4.33;100.00
59971;BME280;45825;45.434;9.116;2024-01-27T00:15:52;101313.31;;;4.29;100.00
59971;BME280;45825;45.434;9.116;2024-01-27T00:18:19;101308.16;;;4.23;100.00
59971;BME280;45825;45.434;9.116;2024-01-27T00:20:45;101309.97;;;4.16;100.00
59971;BME280;45825;45.434;9.116;2024-01-27T00:23:10;101314.31;;;4.15;100.00
59971;BME280;45825;45.434;9.116;2024-01-27T00:25:35;101317.03;;;4.08;100.00
59971;BME280;45825;45.434;9.116;2024-01-27T00:28:00;101321.34;;;4.10;100.00
59971;BME280;45825;45.434;9.116;2024-01-27T00:30:26;101321.13;;;4.29;100.00
59971;BME280;45825;45.434;9.116;2024-01-27T00:32:51;101328.63;;;4.54;100.00
59971;BME280;45825;45.434;9.116;2024-01-27T00:35:16;101342.84;;;4.92;100.00
59971;BME280;45825;45.434;9.116;2024-01-27T00:37:42;101334.31;;;4.84;100.00
59971;BME280;45825;45.434;9.116;2024-01-27T00:40:10;101358.13;;;5.20;100.00
59971;BME280;45825;45.434;9.116;2024-01-27T00:42:36;101336.72;;;4.96;100.00
59971;BME280;45825;45.434;9.116;2024-01-27T00:45:03;101340.66;;;4.63;100.00
59971;BME280;45825;45.434;9.116;2024-01-27T00:47:29;101358.91;;;4.63;100.00
59971;BME280;45825;45.434;9.116;2024-01-27T00:49:54;101356.47;;;4.52;100.00
59971;BME280;45825;45.434;9.116;2024-01-27T00:52:20;101357.72;;;4.88;100.00
59971;BME280;45825;45.434;9.116;2024-01-27T00:54:45;101377.34;;;5.14;100.00
59971;BME280;45825;45.434;9.116;2024-01-27T00:57:10;101379.63;;;5.36;100.00
59971;BME280;45825;45.434;9.116;2024-01-27T00:59:36;101394.63;;;5.22;100.00
59971;BME280;45825;45.434;9.116;2024-01-27T01:02:01;101388.97;;;4.92;100.00
59971;BME280;45825;45.434;9.116;2024-01-27T01:04:27;101372.44;;;4.91;100.00
59971;BME280;45825;45.434;9.116;2024-01-27T01:06:52;101374.44;;;4.72;100.00
59971;BME280;45825;45.434;9.116;2024-01-27T01:09:17;101393.72;;;4.60;100.00
59971;BME280;45825;45.434;9.116;2024-01-27T01:11:43;101387.59;;;4.63;100.00
59971;BME280;45825;45.434;9.116;2024-01-27T01:14:08;101391.09;;;4.60;100.00
59971;BME280;45825;45.434;9.116;2024-01-27T01:16:33;101390.38;;;4.50;100.00
59971;BME280;45825;45.434;9.116;2024-01-27T01:18:58;101405.94;;;4.56;100.00
59971;BME280;45825;45.434;9.116;2024-01-27T01:21:24;101392.34;;;4.29;100.00
59971;BME280;45825;45.434;9.116;2024-01-27T01:23:49;101398.38;;;4.31;100.00
59971;BME280;45825;45.434;9.116;2024-01-27T01:26:15;101402.00;;;4.18;100.00
59971;BME280;45825;45.434;9.116;2024-01-27T01:28:40;101407.19;;;4.24;100.00
59971;BME280;45825;45.434;9.116;2024-01-27T01:31:09;101415.22;;;4.02;100.00
59971;BME280;45825;45.434;9.116;2024-01-27T01:33:34;101414.13;;;4.22;100.00
59971;BME280;45825;45.434;9.116;2024-01-27T01:36:03;101414.41;;;3.96;100.00
59971;BME280;45825;45.434;9.116;2024-01-27T01:38:29;101416.19;;;3.89;100.00
59971;BME280;45825;45.434;9.116;2024-01-27T01:40:54;101408.13;;;4.15;100.00
59971;BME280;45825;45.434;9.116;2024-01-27T01:43:19;101417.91;;;3.90;100.00
59971;BME280;45825;45.434;9.116;2024-01-27T01:45:44;101415.38;;;3.85;100.00
59971;BME280;45825;45.434;9.116;2024-01-27T01:48:10;101417.91;;;3.91;100.00
59971;BME280;45825;45.434;9.116;2024-01-27T01:50:35;101409.00;;;4.16;100.00
59971;BME280;45825;45.434;9.116;2024-01-27T01:53:01;101425.69;;;3.95;100.00
59971;BME280;45825;45.434;9.116;2024-01-27T01:55:26;101420.59;;;3.85;100.00
59971;BME280;45825;45.434;9.116;2024-01-27T01:57:52;101412.81;;;3.77;100.00
59971;BME280;45825;45.434;9.116;2024-01-27T02:00:17;101398.97;;;3.72;100.00
59971;BME280;45825;45.434;9.116;2024-01-27T02:02:46;101406.78;;;3.74;100.00
59971;BME280;45825;45.434;9.116;2024-01-27T02:05:12;101415.59;;;3.59;100.00
59971;BME280;45825;45.434;9.116;2024-01-27T02:07:38;101410.16;;;3.85;100.00
59971;BME280;45825;45.434;9.116;2024-01-27T02:10:03;101407.69;;;3.71;100.00
59971;BME280;45825;45.434;9.116;2024-01-27T02:12:30;101412.16;;;3.52;100.00
59971;BME280;45825;45.434;9.116;2024-01-27T02:14:55;101415.56;;;3.62;100.00
59971;BME280;45825;45.434;9.116;2024-01-27T02:17:20;101424.19;;;3.67;100.00
59971;BME280;45825;45.434;9.116;2024-01-27T02:19:46;101422.53;;;3.57;100.00
59971;BME280;45825;45.434;9.116;2024-01-27T02:22:11;101421.78;;;3.44;100.00
59971;BME280;45825;45.434;9.116;2024-01-27T02:24:36;101422.84;;;3.12;100.00
59971;BME280;45825;45.434;9.116;2024-01-27T02:27:02;101421.16;;;3.00;100.00
59971;BME280;45825;45.434;9.116;2024-01-27T02:29:27;101417.75;;;2.88;100.00
59971;BME280;45825;45.434;9.116;2024-01-27T02:31:53;101420.94;;;3.39;100.00
59971;BME280;45825;45.434;9.116;2024-01-27T02:34:19;101423.66;;;3.18;100.00
59971;BME280;45825;45.434;9.116;2024-01-27T02:36:44;101420.19;;;3.18;100.00
59971;BME280;45825;45.434;9.116;2024-01-27T02:39:10;101420.94;;;3.40;100.00
59971;BME280;45825;45.434;9.116;2024-01-27T02:41:35;101426.16;;;3.37;100.00
59971;BME280;45825;45.434;9.116;2024-01-27T02:44:04;101421.88;;;3.31;100.00
59971;BME280;45825;45.434;9.116;2024-01-27T02:46:30;101423.63;;;3.23;100.00
59971;BME280;45825;45.434;9.116;2024-01-27T02:48:55;101427.25;;;3.00;100.00
59971;BME280;45825;45.434;9.116;2024-01-27T02:51:20;101437.56;;;3.11;100.00
59971;BME280;45825;45.434;9.116;2024-01-27T02:53:46;101434.09;;;3.15;100.00
59971;BME280;45825;45.434;9.116;2024-01-27T02:56:11;101429.13;;;2.72;100.00
59971;BME280;45825;45.434;9.116;2024-01-27T02:58:36;101417.91;;;2.60;100.00
59971;BME280;45825;45.434;9.116;2024-01-27T03:01:02;101427.50;;;2.33;100.00
59971;BME280;45825;45.434;9.116;2024-01-27T03:03:27;101427.56;;;1.73;100.00
59971;BME280;45825;45.434;9.116;2024-01-27T03:05:54;101435.38;;;1.77;100.00
59971;BME280;45825;45.434;9.116;2024-01-27T03:08:19;101435.34;;;1.68;100.00
59971;BME280;45825;45.434;9.116;2024-01-27T03:10:44;101431.88;;;1.89;100.00
59971;BME280;45825;45.434;9.116;2024-01-27T03:13:10;101433.59;;;2.04;100.00
59971;BME280;45825;45.434;9.116;2024-01-27T03:15:35;101453.50;;;1.93;100.00
59971;BME280;45825;45.434;9.116;2024-01-27T03:18:00;101443.16;;;1.91;100.00
59971;BME280;45825;45.434;9.116;2024-01-27T03:20:26;101444.00;;;1.79;100.00
59971;BME280;45825;45.434;9.116;2024-01-27T03:22:52;101445.75;;;1.70;100.00
59971;BME280;45825;45.434;9.116;2024-01-27T03:25:18;101443.16;;;1.52;100.00
59971;BME280;45825;45.434;9.116;2024-01-27T03:27:43;101446.59;;;1.37;100.00
59971;BME280;45825;45.434;9.116;2024-01-27T03:30:10;101450.81;;;1.04;100.00
59971;BME280;45825;45.434;9.116;2024-01-27T03:32:35;101449.91;;;0.97;100.00
59971;BME280;45825;45.434;9.116;2024-01-27T03:35:00;101445.63;;;1.07;100.00
59971;BME280;45825;45.434;9.116;2024-01-27T03:37:26;101453.41;;;1.14;100.00
59971;BME280;45825;45.434;9.116;2024-01-27T03:39:52;101443.88;;;0.94;100.00
59971;BME280;45825;45.434;9.116;2024-01-27T03:42:17;101448.19;;;0.96;100.00
59971;BME280;45825;45.434;9.116;2024-01-27T03:44:43;101449.91;;;0.91;100.00
59971;BME280;45825;45.434;9.116;2024-01-27T03:47:08;101449.03;;;0.95;100.00
59971;BME280;45825;45.434;9.116;2024-01-27T03:49:33;101450.75;;;0.82;100.00
59971;BME280;45825;45.434;9.116;2024-01-27T03:51:58;101455.13;;;1.07;100.00
59971;BME280;45825;45.434;9.116;2024-01-27T03:54:24;101466.38;;;1.06;100.00
59971;BME280;45825;45.434;9.116;2024-01-27T03:56:49;101472.41;;;1.08;100.00
59971;BME280;45825;45.434;9.116;2024-01-27T03:59:14;101474.13;;;0.98;100.00
59971;BME280;45825;45.434;9.116;2024-01-27T04:01:40;101459.41;;;0.91;100.00
59971;BME280;45825;45.434;9.116;2024-01-27T04:04:05;101456.78;;;0.86;100.00
59971;BME280;45825;45.434;9.116;2024-01-27T04:06:39;101457.63;;;0.74;100.00
59971;BME280;45825;45.434;9.116;2024-01-27T04:09:04;101462.88;;;0.94;100.00
59971;BME280;45825;45.434;9.116;2024-01-27T04:11:30;101456.91;;;1.11;100.00
59971;BME280;45825;45.434;9.116;2024-01-27T04:13:55;101462.13;;;1.25;100.00
59971;BME280;45825;45.434;9.116;2024-01-27T04:16:21;101465.56;;;1.25;100.00
59971;BME280;45825;45.434;9.116;2024-01-27T04:18:46;101462.13;;;1.25;100.00
59971;BME280;45825;45.434;9.116;2024-01-27T04:21:11;101470.78;;;1.32;100.00
59971;BME280;45825;45.434;9.116;2024-01-27T04:23:37;101465.59;;;1.32;100.00
59971;BME280;45825;45.434;9.116;2024-01-27T04:26:02;101471.66;;;1.34;100.00
59971;BME280;45825;45.434;9.116;2024-01-27T04:28:27;101462.09;;;1.20;100.00
59971;BME280;45825;45.434;9.116;2024-01-27T04:30:55;101467.28;;;1.30;100.00
59971;BME280;45825;45.434;9.116;2024-01-27T04:33:20;101469.00;;;1.18;100.00
59971;BME280;45825;45.434;9.116;2024-01-27T04:35:46;101469.91;;;1.31;100.00
59971;BME280;45825;45.434;9.116;2024-01-27T04:38:11;101460.38;;;1.21;100.00
59971;BME280;45825;45.434;9.116;2024-01-27T04:40:36;101479.44;;;1.34;100.00
59971;BME280;45825;45.434;9.116;2024-01-27T04:43:02;101475.09;;;1.33;100.00
59971;BME280;45825;45.434;9.116;2024-01-27T04:45:28;101481.09;;;1.15;100.00
59971;BME280;45825;45.434;9.116;2024-01-27T04:47:53;101481.03;;;0.97;100.00
59971;BME280;45825;45.434;9.116;2024-01-27T04:50:19;101494.84;;;0.90;100.00
59971;BME280;45825;45.434;9.116;2024-01-27T04:52:45;101487.91;;;0.91;100.00
59971;BME280;45825;45.434;9.116;2024-01-27T04:55:11;101497.47;;;1.00;100.00
59971;BME280;45825;45.434;9.116;2024-01-27T04:57:36;101493.94;;;0.87;100.00
59971;BME280;45825;45.434;9.116;2024-01-27T05:00:02;101488.75;;;0.87;100.00
59971;BME280;45825;45.434;9.116;2024-01-27T05:02:27;101495.69;;;0.92;100.00
59971;BME280;45825;45.434;9.116;2024-01-27T05:04:53;101499.16;;;0.91;100.00
59971;BME280;45825;45.434;9.116;2024-01-27T05:07:18;101512.09;;;0.87;100.00
59971;BME280;45825;45.434;9.116;2024-01-27T05:09:43;101507.84;;;1.00;100.00
59971;BME280;45825;45.434;9.116;2024-01-27T05:12:09;101510.47;;;1.10;100.00
59971;BME280;45825;45.434;9.116;2024-01-27T05:14:34;101509.66;;;1.29;100.00
59971;BME280;45825;45.434;9.116;2024-01-27T05:16:59;101520.09;;;1.41;100.00
59971;BME280;45825;45.434;9.116;2024-01-27T05:19:24;101514.84;;;1.30;100.00
59971;BME280;45825;45.434;9.116;2024-01-27T05:21:50;101522.59;;;1.21;100.00
59971;BME280;45825;45.434;9.116;2024-01-27T05:24:15;101516.50;;;1.06;100.00
59971;BME280;45825;45.434;9.116;2024-01-27T05:26:40;101509.47;;;0.80;100.00
59971;BME280;45825;45.434;9.116;2024-01-27T05:29:06;101523.16;;;0.56;100.00
59971;BME280;45825;45.434;9.116;2024-01-27T05:31:31;101540.41;;;0.52;100.00
59971;BME280;45825;45.434;9.116;2024-01-27T05:33:57;101529.25;;;0.63;100.00
59971;BME280;45825;45.434;9.116;2024-01-27T05:36:22;101530.19;;;0.80;100.00
59971;BME280;45825;45.434;9.116;2024-01-27T05:38:47;101539.63;;;0.69;100.00
59971;BME280;45825;45.434;9.116;2024-01-27T05:41:13;101537.94;;;0.74;100.00
59971;BME280;45825;45.434;9.116;2024-01-27T05:43:39;101543.19;;;0.87;100.00
59971;BME280;45825;45.434;9.116;2024-01-27T05:46:04;101548.47;;;1.01;100.00
59971;BME280;45825;45.434;9.116;2024-01-27T05:48:30;101540.66;;;0.93;100.00
59971;BME280;45825;45.434;9.116;2024-01-27T05:50:59;101542.31;;;0.85;100.00
59971;BME280;45825;45.434;9.116;2024-01-27T05:53:25;101542.19;;;0.61;100.00
59971;BME280;45825;45.434;9.116;2024-01-27T05:55:51;101552.66;;;0.77;100.00
59971;BME280;45825;45.434;9.116;2024-01-27T05:58:17;101556.13;;;0.82;100.00
59971;BME280;45825;45.434;9.116;2024-01-27T06:00:46;101551.84;;;0.92;100.00
59971;BME280;45825;45.434;9.116;2024-01-27T06:03:12;101558.81;;;0.96;100.00
59971;BME280;45825;45.434;9.116;2024-01-27T06:05:37;101558.78;;;0.97;100.00
59971;BME280;45825;45.434;9.116;2024-01-27T06:08:04;101563.97;;;0.91;100.00
59971;BME280;45825;45.434;9.116;2024-01-27T06:10:30;101558.69;;;0.80;100.00
59971;BME280;45825;45.434;9.116;2024-01-27T06:12:56;101562.91;;;0.61;100.00
59971;BME280;45825;45.434;9.116;2024-01-27T06:15:21;101566.41;;;0.66;100.00
59971;BME280;45825;45.434;9.116;2024-01-27T06:17:47;101566.22;;;0.40;100.00
59971;BME280;45825;45.434;9.116;2024-01-27T06:20:12;101561.91;;;0.40;100.00
59971;BME280;45825;45.434;9.116;2024-01-27T06:22:38;101557.50;;;0.29;100.00
59971;BME280;45825;45.434;9.116;2024-01-27T06:25:04;101565.38;;;0.44;100.00
59971;BME280;45825;45.434;9.116;2024-01-27T06:27:30;101569.66;;;0.40;100.00
59971;BME280;45825;45.434;9.116;2024-01-27T06:29:55;101577.66;;;0.75;100.00
59971;BME280;45825;45.434;9.116;2024-01-27T06:32:20;101577.53;;;0.53;100.00
59971;BME280;45825;45.434;9.116;2024-01-27T06:34:46;101580.13;;;0.53;100.00
59971;BME280;45825;45.434;9.116;2024-01-27T06:37:11;101582.56;;;0.36;100.00
59971;BME280;45825;45.434;9.116;2024-01-27T06:39:36;101596.25;;;0.18;100.00
59971;BME280;45825;45.434;9.116;2024-01-27T06:42:02;101603.28;;;0.36;100.00
59971;BME280;45825;45.434;9.116;2024-01-27T06:44:27;101598.38;;;0.65;100.00
59971;BME280;45825;45.434;9.116;2024-01-27T06:46:52;101591.28;;;0.41;100.00
59971;BME280;45825;45.434;9.116;2024-01-27T06:49:18;101595.41;;;0.20;100.00
59971;BME280;45825;45.434;9.116;2024-01-27T06:51:43;101596.44;;;0.43;100.00
59971;BME280;45825;45.434;9.116;2024-01-27T06:54:09;101609.56;;;0.63;100.00
59971;BME280;45825;45.434;9.116;2024-01-27T06:56:34;101609.63;;;0.74;100.00
59971;BME280;45825;45.434;9.116;2024-01-27T06:58:59;101599.28;;;0.72;100.00
59971;BME280;45825;45.434;9.116;2024-01-27T07:01:24;101603.47;;;0.58;100.00
59971;BME280;45825;45.434;9.116;2024-01-27T07:03:50;101599.84;;;0.34;100.00
59971;BME280;45825;45.434;9.116;2024-01-27T07:06:15;101615.38;;;0.34;100.00
59971;BME280;45825;45.434;9.116;2024-01-27T07:08:40;101613.69;;;0.40;100.00
59971;BME280;45825;45.434;9.116;2024-01-27T07:11:06;101625.88;;;0.49;100.00
59971;BME280;45825;45.434;9.116;2024-01-27T07:13:33;101625.91;;;0.55;100.00
59971;BME280;45825;45.434;9.116;2024-01-27T07:15:58;101627.66;;;0.58;100.00
59971;BME280;45825;45.434;9.116;2024-01-27T07:18:24;101623.50;;;0.82;100.00
59971;BME280;45825;45.434;9.116;2024-01-27T07:20:50;101626.13;;;0.83;100.00
59971;BME280;45825;45.434;9.116;2024-01-27T07:23:16;101622.59;;;0.75;100.00
59971;BME280;45825;45.434;9.116;2024-01-27T07:25:43;101618.31;;;0.79;100.00
59971;BME280;45825;45.434;9.116;2024-01-27T07:28:08;101621.72;;;0.72;100.00
59971;BME280;45825;45.434;9.116;2024-01-27T07:30:33;101629.28;;;0.44;100.00
59971;BME280;45825;45.434;9.116;2024-01-27T07:32:58;101617.03;;;0.27;100.00
59971;BME280;45825;45.434;9.116;2024-01-27T07:35:24;101621.25;;;0.12;100.00
59971;BME280;45825;45.434;9.116;2024-01-27T07:37:49;101616.09;;;0.17;100.00
59971;BME280;45825;45.434;9.116;2024-01-27T07:40:14;101626.47;;;0.20;100.00
59971;BME280;45825;45.434;9.116;2024-01-27T07:42:40;101621.34;;;0.22;100.00
59971;BME280;45825;45.434;9.116;2024-01-27T07:45:06;101627.91;;;-0.10;100.00
59971;BME280;45825;45.434;9.116;2024-01-27T07:47:33;101627.84;;;-0.16;100.00
59971;BME280;45825;45.434;9.116;2024-01-27T07:49:59;101633.22;;;0.01;100.00
59971;BME280;45825;45.434;9.116;2024-01-27T07:52:24;101644.53;;;0.14;100.00
59971;BME280;45825;45.434;9.116;2024-01-27T07:54:49;101644.66;;;0.25;100.00
59971;BME280;45825;45.434;9.116;2024-01-27T07:57:15;101646.34;;;0.21;100.00
59971;BME280;45825;45.434;9.116;2024-01-27T07:59:40;101643.00;;;0.33;100.00
59971;BME280;45825;45.434;9.116;2024-01-27T08:02:05;101639.66;;;0.47;100.00
59971;BME280;45825;45.434;9.116;2024-01-27T08:04:31;101643.09;;;0.47;100.00
59971;BME280;45825;45.434;9.116;2024-01-27T08:06:56;101635.28;;;0.43;100.00
59971;BME280;45825;45.434;9.116;2024-01-27T08:09:21;101632.72;;;0.44;100.00
59971;BME280;45825;45.434;9.116;2024-01-27T08:11:47;101633.47;;;0.29;100.00
59971;BME280;45825;45.434;9.116;2024-01-27T08:14:16;101629.97;;;0.24;100.00
59971;BME280;45825;45.434;9.116;2024-01-27T08:16:42;101639.34;;;0.11;100.00
59971;BME280;45825;45.434;9.116;2024-01-27T08:19:08;101630.69;;;0.10;100.00
59971;BME280;45825;45.434;9.116;2024-01-27T08:21:33;101629.09;;;0.22;100.00
59971;BME280;45825;45.434;9.116;2024-01-27T08:23:59;101628.16;;;0.17;100.00
59971;BME280;45825;45.434;9.116;2024-01-27T08:26:24;101632.47;;;0.15;100.00
59971;BME280;45825;45.434;9.116;2024-01-27T08:28:50;101630.03;;;0.32;100.00
59971;BME280;45825;45.434;9.116;2024-01-27T08:31:15;101632.72;;;0.41;100.00
59971;BME280;45825;45.434;9.116;2024-01-27T08:33:40;101639.88;;;0.75;100.00
59971;BME280;45825;45.434;9.116;2024-01-27T08:36:06;101644.19;;;0.74;100.00
59971;BME280;45825;45.434;9.116;2024-01-27T08:38:32;101640.78;;;0.80;100.00
59971;BME280;45825;45.434;9.116;2024-01-27T08:40:57;101641.59;;;0.76;100.00
59971;BME280;45825;45.434;9.116;2024-01-27T08:43:22;101634.56;;;0.56;100.00
59971;BME280;45825;45.434;9.116;2024-01-27T08:45:48;101631.81;;;0.37;100.00
59971;BME280;45825;45.434;9.116;2024-01-27T08:48:13;101644.03;;;0.55;100.00
59971;BME280;45825;45.434;9.116;2024-01-27T08:50:39;101646.94;;;0.93;100.00
59971;BME280;45825;45.434;9.116;2024-01-27T08:53:04;101645.41;;;1.26;100.00
59971;BME280;45825;45.434;9.116;2024-01-27T08:55:30;101648.03;;;1.40;100.00
59971;BME280;45825;45.434;9.116;2024-01-27T08:57:56;101641.13;;;1.36;100.00
59971;BME280;45825;45.434;9.116;2024-01-27T09:00:22;101644.41;;;1.04;100.00
59971;BME280;45825;45.434;9.116;2024-01-27T09:02:47;101650.41;;;0.95;100.00
59971;BME280;45825;45.434;9.116;2024-01-27T09:05:13;101650.50;;;1.15;100.00
59971;BME280;45825;45.434;9.116;2024-01-27T09:07:38;101648.13;;;1.52;100.00
59971;BME280;45825;45.434;9.116;2024-01-27T09:10:04;101635.13;;;1.57;100.00
59971;BME280;45825;45.434;9.116;2024-01-27T09:12:29;101625.56;;;1.37;100.00
59971;BME280;45825;45.434;9.116;2024-01-27T09:14:54;101631.59;;;1.33;100.00
59971;BME280;45825;45.434;9.116;2024-01-27T09:17:20;101638.53;;;1.39;100.00
59971;BME280;45825;45.434;9.116;2024-01-27T09:19:46;101638.59;;;1.53;100.00
59971;BME280;45825;45.434;9.116;2024-01-27T09:22:12;101640.41;;;1.74;100.00
59971;BME280;45825;45.434;9.116;2024-01-27T09:24:37;101628.31;;;1.76;100.00
59971;BME280;45825;45.434;9.116;2024-01-27T09:27:03;101623.94;;;1.67;100.00
59971;BME280;45825;45.434;9.116;2024-01-27T09:29:29;101628.28;;;1.64;100.00
59971;BME280;45825;45.434;9.116;2024-01-27T09:31:54;101626.56;;;1.77;100.00
59971;BME280;45825;45.434;9.116;2024-01-27T09:34:19;101627.47;;;1.87;100.00
59971;BME280;45825;45.434;9.116;2024-01-27T09:36:45;101627.50;;;2.01;100.00
59971;BME280;45825;45.434;9.116;2024-01-27T09:39:10;101632.72;;;2.13;100.00
59971;BME280;45825;45.434;9.116;2024-01-27T09:41:36;101630.13;;;2.29;100.00
59971;BME280;45825;45.434;9.116;2024-01-27T09:44:03;101625.81;;;2.34;100.00
59971;BME280;45825;45.434;9.116;2024-01-27T09:46:30;101633.59;;;2.48;100.00
59971;BME280;45825;45.434;9.116;2024-01-27T09:48:55;101631.00;;;2.48;100.00
59971;BME280;45825;45.434;9.116;2024-01-27T09:51:21;101627.53;;;2.68;100.00
59971;BME280;45825;45.434;9.116;2024-01-27T09:53:48;101637.06;;;2.93;100.00
59971;BME280;45825;45.434;9.116;2024-01-27T09:56:15;101637.03;;;3.06;100.00
59971;BME280;45825;45.434;9.116;2024-01-27T09:58:43;101640.50;;;3.00;100.00
59971;BME280;45825;45.434;9.116;2024-01-27T10:01:10;101638.75;;;3.07;100.00
59971;BME280;45825;45.434;9.116;2024-01-27T10:03:36;101649.09;;;3.22;100.00
59971;BME280;45825;45.434;9.116;2024-01-27T10:06:10;101652.56;;;3.35;100.00
59971;BME280;45825;45.434;9.116;2024-01-27T10:08:36;101646.41;;;3.52;100.00
59971;BME280;45825;45.434;9.116;2024-01-27T10:11:06;101647.22;;;3.71;100.00
59971;BME280;45825;45.434;9.116;2024-01-27T10:13:32;101645.44;;;3.76;100.00
59971;BME280;45825;45.434;9.116;2024-01-27T10:16:06;101648.88;;;3.83;100.00
59971;BME280;45825;45.434;9.116;2024-01-27T10:18:32;101641.00;;;3.96;100.00
59971;BME280;45825;45.434;9.116;2024-01-27T10:21:12;101636.56;;;4.10;100.00
59971;BME280;45825;45.434;9.116;2024-01-27T10:23:41;101652.09;;;4.29;100.00
59971;BME280;45825;45.434;9.116;2024-01-27T10:26:10;101638.97;;;4.41;100.00
59971;BME280;45825;45.434;9.116;2024-01-27T10:28:35;101646.47;;;4.80;100.00
59971;BME280;45825;45.434;9.116;2024-01-27T10:31:11;101643.47;;;5.21;100.00
59971;BME280;45825;45.434;9.116;2024-01-27T10:33:37;101649.38;;;5.37;100.00
59971;BME280;45825;45.434;9.116;2024-01-27T10:36:02;101646.66;;;5.44;100.00
59971;BME280;45825;45.434;9.116;2024-01-27T10:38:35;101641.88;;;5.78;100.00
59971;BME280;45825;45.434;9.116;2024-01-27T10:41:01;101650.16;;;6.12;100.00
59971;BME280;45825;45.434;9.116;2024-01-27T10:43:28;101641.44;;;6.13;100.00
59971;BME280;45825;45.434;9.116;2024-01-27T10:45:54;101646.41;;;6.29;100.00
59971;BME280;45825;45.434;9.116;2024-01-27T10:48:22;101647.19;;;6.36;100.00
59971;BME280;45825;45.434;9.116;2024-01-27T10:50:49;101626.50;;;7.21;100.00
59971;BME280;45825;45.434;9.116;2024-01-27T10:53:22;101629.41;;;8.30;100.00
59971;BME280;45825;45.434;9.116;2024-01-27T10:55:53;101631.28;;;8.96;100.00
59971;BME280;45825;45.434;9.116;2024-01-27T10:58:23;101622.78;;;10.34;100.00
59971;BME280;45825;45.434;9.116;2024-01-27T11:00:50;101619.53;;;11.55;100.00
59971;BME280;45825;45.434;9.116;2024-01-27T11:03:18;101609.38;;;11.90;100.00
59971;BME280;45825;45.434;9.116;2024-01-27T11:05:46;101614.41;;;11.96;100.00
59971;BME280;45825;45.434;9.116;2024-01-27T11:08:12;101621.50;;;13.22;100.00
59971;BME280;45825;45.434;9.116;2024-01-27T11:10:39;101604.56;;;13.66;100.00
59971;BME280;45825;45.434;9.116;2024-01-27T11:13:05;101605.88;;;13.36;100.00
59971;BME280;45825;45.434;9.116;2024-01-27T11:15:30;101604.97;;;13.76;100.00
59971;BME280;45825;45.434;9.116;2024-01-27T11:17:59;101597.47;;;13.66;100.00
59971;BME280;45825;45.434;9.116;2024-01-27T11:20:25;101603.28;;;14.47;100.00
59971;BME280;45825;45.434;9.116;2024-01-27T11:22:50;101601.63;;;14.97;100.00
59971;BME280;45825;45.434;9.116;2024-01-27T11:25:17;101598.53;;;14.71;100.00
59971;BME280;45825;45.434;9.116;2024-01-27T11:27:44;101593.13;;;16.51;100.00
59971;BME280;45825;45.434;9.116;2024-01-27T11:30:30;101586.91;;;17.39;95.33
59971;BME280;45825;45.434;9.116;2024-01-27T11:33:00;101580.53;;;16.84;88.48
59971;BME280;45825;45.434;9.116;2024-01-27T11:35:26;101570.84;;;18.10;81.99
59971;BME280;45825;45.434;9.116;2024-01-27T11:37:52;101568.09;;;19.29;51.65
59971;BME280;45825;45.434;9.116;2024-01-27T11:40:18;101571.03;;;18.74;51.71
59971;BME280;45825;45.434;9.116;2024-01-27T11:42:43;101571.75;;;18.63;50.83
59971;BME280;45825;45.434;9.116;2024-01-27T11:45:09;101563.91;;;19.37;49.32
59971;BME280;45825;45.434;9.116;2024-01-27T11:47:35;101555.03;;;20.34;46.52
59971;BME280;45825;45.434;9.116;2024-01-27T11:50:00;101554.19;;;19.98;46.13
59971;BME280;45825;45.434;9.116;2024-01-27T11:52:27;101553.72;;;20.40;45.74
59971;BME280;45825;45.434;9.116;2024-01-27T11:55:00;101551.78;;;20.42;43.09
59971;BME280;45825;45.434;9.116;2024-01-27T11:57:25;101552.59;;;22.22;40.15
59971;BME280;45825;45.434;9.116;2024-01-27T11:59:52;101548.75;;;21.38;41.05
59971;BME280;45825;45.434;9.116;2024-01-27T12:04:52;101557.53;;;21.84;40.17
59971;BME280;45825;45.434;9.116;2024-01-27T12:07:19;101553.00;;;23.32;38.20
59971;BME280;45825;45.434;9.116;2024-01-27T12:09:45;101542.31;;;23.42;36.16
59971;BME280;45825;45.434;9.116;2024-01-27T12:12:12;101534.19;;;22.50;38.13
59971;BME280;45825;45.434;9.116;2024-01-27T12:14:39;101529.72;;;22.39;38.62
59971;BME280;45825;45.434;9.116;2024-01-27T12:17:05;101525.00;;;22.84;38.18
59971;BME280;45825;45.434;9.116;2024-01-27T12:19:30;101522.50;;;23.43;37.29
59971;BME280;45825;45.434;9.116;2024-01-27T12:21:56;101523.50;;;24.01;36.18
59971;BME280;45825;45.434;9.116;2024-01-27T12:24:23;101520.47;;;24.44;35.67
59971;BME280;45825;45.434;9.116;2024-01-27T12:26:49;101516.28;;;24.59;35.08
59971;BME280;45825;45.434;9.116;2024-01-27T12:29:14;101513.03;;;24.08;35.93
59971;BME280;45825;45.434;9.116;2024-01-27T12:31:39;101509.34;;;25.22;34.15
59971;BME280;45825;45.434;9.116;2024-01-27T12:34:05;101505.13;;;23.86;36.17
59971;BME280;45825;45.434;9.116;2024-01-27T12:36:32;101508.59;;;25.30;34.69
59971;BME280;45825;45.434;9.116;2024-01-27T12:38:58;101504.88;;;25.13;35.05
59971;BME280;45825;45.434;9.116;2024-01-27T12:41:27;101496.66;;;25.15;34.97
59971;BME280;45825;45.434;9.116;2024-01-27T12:43:55;101498.59;;;23.89;36.60
59971;BME280;45825;45.434;9.116;2024-01-27T12:46:21;101501.34;;;24.47;36.17